Time;durP1;ratioP1;P1;durP2;ratioP2;P2;SDS_P1;SDS_P2;PMS_P1;PMS_P2;Temp;Humidity;BMP_temperature;BMP_pressure;BME280_temperature;BME280_humidity;BME280_pressure;Samples;Min_cycle;Max_cycle;Signal;HPM_P1;HPM_P2
2022/09/07 00:01:39;;;;;;;20.15;5.47;;;19.70;99.90;;;;;;5053744;28;20546;-65
2022/09/07 00:04:06;;;;;;;18.25;6.38;;;19.70;99.90;;;;;;5025644;28;20195;-62
2022/09/07 00:06:33;;;;;;;20.27;6.03;;;19.70;99.90;;;;;;5053067;28;20180;-63
2022/09/07 00:09:03;;;;;;;20.50;5.93;;;19.60;99.90;;;;;;5054520;28;20218;-62
2022/09/07 00:11:28;;;;;;;13.05;4.88;;;19.60;99.90;;;;;;5060231;28;20180;-64
2022/09/07 00:13:55;;;;;;;13.45;5.50;;;19.50;99.90;;;;;;5043855;28;20224;-64
2022/09/07 00:16:24;;;;;;;16.45;4.80;;;19.50;99.90;;;;;;5053565;28;20186;-64
2022/09/07 00:18:51;;;;;;;14.45;4.10;;;19.40;99.90;;;;;;5063518;28;20564;-64
2022/09/07 00:21:17;;;;;;;14.63;3.60;;;19.40;99.90;;;;;;5052204;28;20262;-63
2022/09/07 00:23:43;;;;;;;10.98;3.72;;;19.30;99.90;;;;;;5047651;28;20266;-65
2022/09/07 00:26:17;;;;;;;7.95;3.30;;;19.20;99.90;;;;;;5052173;28;20309;-63
2022/09/07 00:28:43;;;;;;;7.10;3.30;;;19.10;99.90;;;;;;5053532;28;20661;-62
2022/09/07 00:31:15;;;;;;;13.43;3.30;;;19.10;99.90;;;;;;5035610;28;20653;-64
2022/09/07 00:33:41;;;;;;;8.38;3.38;;;19.00;99.90;;;;;;5049959;28;20184;-63
2022/09/07 00:36:07;;;;;;;11.77;3.45;;;18.90;99.90;;;;;;5047348;28;20179;-63
2022/09/07 00:38:33;;;;;;;10.52;3.60;;;18.80;99.90;;;;;;5054618;28;20211;-64
2022/09/07 00:40:59;;;;;;;9.60;3.50;;;18.80;99.90;;;;;;5054659;28;20171;-64
2022/09/07 00:43:52;;;;;;;8.70;3.40;;;18.80;99.90;;;;;;5040212;28;20269;-65
2022/09/07 00:46:24;;;;;;;6.63;2.97;;;18.70;99.90;;;;;;5045010;28;20309;-65
2022/09/07 00:49:06;;;;;;;8.35;3.25;;;18.70;99.90;;;;;;5053660;28;20196;-66
2022/09/07 00:51:40;;;;;;;8.82;3.63;;;18.70;99.90;;;;;;5054497;28;20160;-67
2022/09/07 00:54:13;;;;;;;9.55;3.63;;;18.70;99.90;;;;;;5042290;28;20186;-68
2022/09/07 00:56:42;;;;;;;5.57;3.60;;;18.70;99.90;;;;;;5048059;28;20179;-68
2022/09/07 00:59:09;;;;;;;11.07;3.83;;;18.70;99.90;;;;;;5045925;28;20719;-69
2022/09/07 01:01:37;;;;;;;13.23;4.20;;;18.70;99.90;;;;;;5054322;28;20230;-72
2022/09/07 01:04:03;;;;;;;12.38;3.92;;;18.70;99.90;;;;;;5043683;28;20191;-70
2022/09/07 01:06:32;;;;;;;7.07;3.60;;;18.80;99.90;;;;;;5050091;28;20302;-72
2022/09/07 01:09:09;;;;;;;8.98;3.80;;;18.80;99.90;;;;;;5053912;28;20186;-72
2022/09/07 01:11:35;;;;;;;7.25;3.72;;;18.80;99.90;;;;;;5064919;28;20178;-72
2022/09/07 01:14:04;;;;;;;9.27;4.25;;;18.80;99.90;;;;;;5045423;28;20245;-72
2022/09/07 01:17:15;;;;;;;10.05;4.07;;;18.80;99.90;;;;;;5053215;28;20587;-71
2022/09/07 01:20:09;;;;;;;4.72;3.55;;;18.80;99.90;;;;;;5047639;28;20230;-72
2022/09/07 01:22:44;;;;;;;6.75;3.47;;;18.90;99.90;;;;;;5042107;28;20182;-72
2022/09/07 01:25:55;;;;;;;7.82;2.72;;;18.90;99.90;;;;;;5048636;28;21646;-70
2022/09/07 01:28:31;;;;;;;5.85;2.83;;;18.90;99.90;;;;;;5051975;28;20708;-73
2022/09/07 01:31:15;;;;;;;5.85;2.50;;;18.90;99.90;;;;;;5052849;28;20206;-73
2022/09/07 01:33:55;;;;;;;4.38;2.40;;;18.90;99.90;;;;;;5053576;28;20179;-72
2022/09/07 01:36:29;;;;;;;3.42;2.55;;;18.80;99.90;;;;;;5043230;28;20179;-72
2022/09/07 01:39:00;;;;;;;3.65;2.38;;;18.80;99.90;;;;;;5049784;28;20246;-71
2022/09/07 01:41:39;;;;;;;5.18;2.67;;;18.80;99.90;;;;;;5053982;28;20175;-70
2022/09/07 01:44:10;;;;;;;8.75;2.25;;;18.80;99.90;;;;;;5052380;28;20178;-71
2022/09/07 01:47:00;;;;;;;7.57;2.78;;;18.80;99.90;;;;;;5050659;28;20238;-67
2022/09/07 01:49:29;;;;;;;3.92;2.20;;;18.70;99.90;;;;;;5048291;28;20236;-70
2022/09/07 01:52:01;;;;;;;4.82;2.22;;;18.80;99.90;;;;;;5054704;28;20258;-70
2022/09/07 01:54:38;;;;;;;4.97;2.38;;;18.70;99.90;;;;;;5054000;28;20270;-70
2022/09/07 01:57:12;;;;;;;5.75;2.15;;;18.70;99.90;;;;;;5051359;28;20175;-71
2022/09/07 02:00:07;;;;;;;5.47;1.80;;;18.70;99.90;;;;;;5041219;28;20325;-71
2022/09/07 02:02:58;;;;;;;5.68;1.98;;;18.70;99.90;;;;;;5049007;28;20206;-72
2022/09/07 02:05:32;;;;;;;4.03;2.28;;;18.70;99.90;;;;;;5051461;28;20317;-72
2022/09/07 02:08:03;;;;;;;5.63;2.05;;;18.70;99.90;;;;;;5053556;28;20232;-72
2022/09/07 02:11:02;;;;;;;11.52;3.00;;;18.80;99.90;;;;;;5050893;28;20172;-71
2022/09/07 02:13:41;;;;;;;6.68;3.08;;;18.80;99.90;;;;;;5049979;28;20678;-68
2022/09/07 02:16:26;;;;;;;5.22;3.00;;;18.80;99.90;;;;;;5051463;28;20167;-67
2022/09/07 02:18:56;;;;;;;8.02;3.10;;;18.90;99.90;;;;;;5051726;28;20195;-68
2022/09/07 02:21:30;;;;;;;5.80;2.90;;;18.80;99.90;;;;;;5050846;28;20175;-68
2022/09/07 02:24:03;;;;;;;7.05;2.47;;;18.90;99.90;;;;;;5040720;28;20209;-67
2022/09/07 02:26:29;;;;;;;4.30;2.60;;;18.80;99.90;;;;;;5051983;28;20179;-67
2022/09/07 02:28:55;;;;;;;5.20;2.13;;;18.80;99.90;;;;;;5050410;28;20187;-68
2022/09/07 02:31:21;;;;;;;4.55;1.90;;;18.70;99.90;;;;;;5052744;28;20304;-67
2022/09/07 02:33:47;;;;;;;8.05;2.20;;;18.70;99.90;;;;;;5049940;28;20202;-67
2022/09/07 02:36:16;;;;;;;5.82;2.05;;;18.70;99.90;;;;;;5050587;28;20702;-67
2022/09/07 02:38:42;;;;;;;4.72;1.90;;;18.70;99.90;;;;;;5049907;28;20286;-66
2022/09/07 02:41:28;;;;;;;7.13;2.05;;;18.70;99.90;;;;;;5047291;28;20673;-67
2022/09/07 02:43:55;;;;;;;7.70;1.98;;;18.70;99.90;;;;;;5055322;28;20186;-66
2022/09/07 02:46:34;;;;;;;5.03;2.10;;;18.80;99.90;;;;;;5047011;28;20190;-67
2022/09/07 02:49:09;;;;;;;3.78;1.75;;;18.90;99.90;;;;;;5052399;28;20187;-68
2022/09/07 02:52:06;;;;;;;6.55;1.90;;;18.90;99.90;;;;;;5056144;28;20688;-68
2022/09/07 02:54:40;;;;;;;4.10;2.15;;;18.90;99.90;;;;;;5055280;28;20171;-67
2022/09/07 02:57:15;;;;;;;3.92;2.03;;;18.80;99.90;;;;;;5052520;28;20178;-67
2022/09/07 02:59:58;;;;;;;4.53;1.92;;;18.80;99.90;;;;;;5048496;28;20222;-67
2022/09/07 03:02:30;;;;;;;5.10;2.00;;;18.80;99.90;;;;;;5052934;28;20182;-68
2022/09/07 03:05:22;;;;;;;7.95;2.10;;;18.80;99.90;;;;;;5055370;28;20172;-70
2022/09/07 03:08:10;;;;;;;4.13;1.88;;;18.90;99.90;;;;;;5051836;28;20292;-67
2022/09/07 03:10:40;;;;;;;4.22;1.95;;;18.90;99.90;;;;;;5055291;28;20218;-69
2022/09/07 03:13:05;;;;;;;3.72;2.20;;;18.90;99.90;;;;;;5062660;28;20175;-68
2022/09/07 03:15:31;;;;;;;3.58;2.17;;;18.90;99.90;;;;;;5054504;28;20190;-68
2022/09/07 03:17:57;;;;;;;10.35;2.30;;;18.90;99.90;;;;;;5050072;28;20207;-67
2022/09/07 03:20:22;;;;;;;2.53;1.80;;;18.90;99.90;;;;;;5048837;28;20186;-68
2022/09/07 03:22:50;;;;;;;2.40;1.90;;;18.90;99.90;;;;;;5054985;28;20187;-68
2022/09/07 03:25:17;;;;;;;6.28;1.98;;;18.80;99.90;;;;;;5056519;28;20183;-68
2022/09/07 03:27:42;;;;;;;2.92;1.60;;;18.80;99.90;;;;;;5052078;28;20582;-68
2022/09/07 03:30:10;;;;;;;7.45;2.20;;;18.80;99.90;;;;;;5051564;28;20210;-67
2022/09/07 03:32:37;;;;;;;5.57;2.25;;;18.70;99.90;;;;;;5056102;28;20179;-68
2022/09/07 03:35:05;;;;;;;6.47;2.20;;;18.70;99.90;;;;;;5056255;28;20203;-67
2022/09/07 03:37:31;;;;;;;4.63;2.20;;;18.70;99.90;;;;;;5056127;28;20659;-67
2022/09/07 03:39:57;;;;;;;3.15;2.00;;;18.60;99.90;;;;;;5045478;28;20230;-67
2022/09/07 03:42:23;;;;;;;2.67;2.10;;;18.60;99.90;;;;;;5045582;28;20187;-67
2022/09/07 03:44:49;;;;;;;4.22;2.50;;;18.60;99.90;;;;;;5053060;28;20183;-67
2022/09/07 03:47:15;;;;;;;4.25;2.70;;;18.60;99.90;;;;;;5051192;28;20179;-68
2022/09/07 03:49:41;;;;;;;6.78;2.70;;;18.50;99.90;;;;;;5055700;28;20183;-67
2022/09/07 03:52:07;;;;;;;5.32;2.70;;;18.50;99.90;;;;;;5053804;28;20194;-67
2022/09/07 03:54:33;;;;;;;4.10;2.45;;;18.50;99.90;;;;;;5039209;28;20179;-67
2022/09/07 03:56:59;;;;;;;3.58;2.78;;;18.50;99.90;;;;;;5051663;28;20191;-67
2022/09/07 03:59:24;;;;;;;5.75;2.58;;;18.40;99.90;;;;;;5052390;28;20604;-67
2022/09/07 04:01:50;;;;;;;7.95;2.65;;;18.40;99.90;;;;;;5052074;28;20178;-67
2022/09/07 04:04:16;;;;;;;4.55;2.50;;;18.40;99.90;;;;;;5036886;28;20192;-67
2022/09/07 04:06:42;;;;;;;5.20;2.22;;;18.30;99.90;;;;;;5051096;28;20225;-67
2022/09/07 04:09:12;;;;;;;4.40;2.03;;;18.30;99.90;;;;;;5055106;28;20283;-67
2022/09/07 04:11:39;;;;;;;3.60;2.58;;;18.30;99.90;;;;;;5055105;28;20187;-67
2022/09/07 04:14:05;;;;;;;4.45;2.85;;;18.30;99.90;;;;;;5054350;28;20183;-67
2022/09/07 04:16:32;;;;;;;4.78;2.38;;;18.20;99.90;;;;;;5053942;28;20183;-67
2022/09/07 04:18:57;;;;;;;5.80;2.67;;;18.20;99.90;;;;;;5033554;28;20544;-67
2022/09/07 04:21:25;;;;;;;8.90;2.85;;;18.20;99.90;;;;;;5053997;28;20194;-67
2022/09/07 04:23:52;;;;;;;6.43;2.90;;;18.20;99.90;;;;;;5051504;28;20174;-66
2022/09/07 04:26:21;;;;;;;4.60;2.60;;;18.10;99.90;;;;;;5044366;28;20232;-67
2022/09/07 04:28:47;;;;;;;3.92;2.70;;;18.10;99.90;;;;;;5055199;28;20187;-66
2022/09/07 04:31:15;;;;;;;4.93;2.83;;;18.10;99.90;;;;;;5051098;28;20187;-67
2022/09/07 04:33:42;;;;;;;4.95;2.75;;;18.10;99.90;;;;;;5053718;28;20180;-67
2022/09/07 04:36:07;;;;;;;7.88;3.13;;;18.10;99.90;;;;;;5052008;28;20186;-67
2022/09/07 04:38:33;;;;;;;6.90;2.78;;;18.00;99.90;;;;;;5053720;28;20535;-67
2022/09/07 04:41:08;;;;;;;7.88;3.60;;;18.00;99.90;;;;;;5053832;28;20204;-67
2022/09/07 04:43:36;;;;;;;6.03;3.10;;;17.90;99.90;;;;;;5040549;28;20369;-67
2022/09/07 04:46:18;;;;;;;6.80;3.60;;;17.90;99.90;;;;;;5051763;28;20176;-68
2022/09/07 04:48:47;;;;;;;6.28;3.40;;;17.90;99.90;;;;;;5054131;28;20183;-67
2022/09/07 04:51:14;;;;;;;5.65;3.50;;;17.90;99.90;;;;;;5054065;28;20262;-70
2022/09/07 04:53:39;;;;;;;7.32;3.53;;;17.80;99.90;;;;;;5044343;28;20187;-68
2022/09/07 04:56:05;;;;;;;5.25;3.92;;;17.80;99.90;;;;;;5052052;28;20186;-68
2022/09/07 04:58:31;;;;;;;5.00;3.85;;;17.80;99.90;;;;;;5053870;28;20620;-68
2022/09/07 05:01:04;;;;;;;9.48;3.65;;;17.80;99.90;;;;;;5051613;28;20188;-68
2022/09/07 05:03:33;;;;;;;4.95;3.63;;;17.70;99.90;;;;;;5043904;28;20171;-67
2022/09/07 05:06:06;;;;;;;6.45;3.63;;;17.70;99.90;;;;;;5060043;28;20182;-71
2022/09/07 05:08:40;;;;;;;5.45;3.78;;;17.70;99.90;;;;;;5054111;28;20191;-71
2022/09/07 05:11:07;;;;;;;7.85;4.30;;;17.60;99.90;;;;;;5058133;28;20619;-72
2022/09/07 05:13:33;;;;;;;9.15;5.10;;;17.60;99.90;;;;;;5056872;28;20635;-72
2022/09/07 05:16:05;;;;;;;5.82;4.70;;;17.70;99.90;;;;;;5066388;28;20258;-73
2022/09/07 05:18:32;;;;;;;10.73;5.05;;;17.70;99.90;;;;;;5051826;28;20231;-67
2022/09/07 05:21:13;;;;;;;5.80;4.40;;;17.70;99.90;;;;;;5046530;28;20274;-68
2022/09/07 05:23:39;;;;;;;6.57;4.03;;;17.70;99.90;;;;;;5050464;28;20175;-68
2022/09/07 05:26:06;;;;;;;4.97;4.20;;;17.70;99.90;;;;;;5054123;28;20262;-68
2022/09/07 05:28:33;;;;;;;7.00;4.43;;;17.70;99.90;;;;;;5053626;28;20264;-68
2022/09/07 05:31:07;;;;;;;6.15;4.18;;;17.70;99.90;;;;;;5048294;28;20183;-69
2022/09/07 05:33:33;;;;;;;6.55;4.13;;;17.70;99.90;;;;;;5052231;28;20183;-68
2022/09/07 05:36:00;;;;;;;7.28;4.22;;;17.70;99.90;;;;;;5050905;28;20176;-68
2022/09/07 05:38:27;;;;;;;5.82;4.15;;;17.70;99.90;;;;;;5051646;28;20211;-69
2022/09/07 05:40:53;;;;;;;6.82;4.07;;;17.70;99.90;;;;;;5054026;28;20183;-68
2022/09/07 05:43:19;;;;;;;8.95;4.32;;;17.70;99.90;;;;;;5042492;28;20285;-68
2022/09/07 05:45:44;;;;;;;9.02;4.10;;;17.70;99.90;;;;;;5051443;28;20179;-68
2022/09/07 05:48:10;;;;;;;7.93;4.18;;;17.70;99.90;;;;;;5034396;28;20187;-67
2022/09/07 05:50:36;;;;;;;6.03;3.88;;;17.70;99.90;;;;;;5052772;28;20551;-68
2022/09/07 05:53:02;;;;;;;5.22;3.50;;;17.70;99.90;;;;;;5044816;28;20202;-68
2022/09/07 05:55:29;;;;;;;7.40;4.10;;;17.70;99.90;;;;;;5039097;28;21093;-68
2022/09/07 05:57:55;;;;;;;7.40;4.15;;;17.80;99.90;;;;;;5046359;28;20206;-69
2022/09/07 06:00:21;;;;;;;5.75;3.75;;;17.80;99.90;;;;;;5052495;28;20558;-64
2022/09/07 06:02:47;;;;;;;10.43;4.10;;;17.80;99.90;;;;;;5048211;28;20218;-67
2022/09/07 06:05:13;;;;;;;8.45;4.15;;;17.80;99.90;;;;;;5052305;28;20187;-68
2022/09/07 06:07:39;;;;;;;9.50;4.82;;;17.80;99.90;;;;;;5043123;28;20249;-68
2022/09/07 06:10:06;;;;;;;6.30;4.07;;;17.80;99.90;;;;;;5051308;28;20635;-67
2022/09/07 06:12:32;;;;;;;5.50;4.20;;;17.80;99.90;;;;;;5052857;28;20179;-70
2022/09/07 06:15:00;;;;;;;8.55;4.60;;;17.80;99.90;;;;;;5042131;28;20171;-70
2022/09/07 06:17:30;;;;;;;8.73;4.20;;;17.90;99.90;;;;;;5050041;28;20187;-70
2022/09/07 06:19:56;;;;;;;7.50;4.25;;;17.90;99.90;;;;;;5051758;28;20171;-68
2022/09/07 06:22:21;;;;;;;7.10;4.57;;;17.80;99.90;;;;;;5051524;28;20225;-69
2022/09/07 06:24:47;;;;;;;7.15;5.10;;;17.80;99.90;;;;;;5043007;28;20184;-68
2022/09/07 06:27:13;;;;;;;10.07;5.07;;;17.90;99.90;;;;;;5046577;28;20179;-73
2022/09/07 06:29:39;;;;;;;7.72;4.55;;;17.80;99.90;;;;;;5040507;28;20211;-69
2022/09/07 06:32:04;;;;;;;9.10;4.38;;;17.90;99.90;;;;;;5051331;28;20175;-70
2022/09/07 06:34:30;;;;;;;5.63;4.22;;;17.90;99.90;;;;;;5049798;28;20257;-68
2022/09/07 06:36:56;;;;;;;5.22;4.38;;;17.90;99.90;;;;;;5042688;28;20241;-69
2022/09/07 06:39:22;;;;;;;7.00;4.15;;;17.90;99.90;;;;;;5042222;28;20619;-69
2022/09/07 06:41:47;;;;;;;4.70;4.22;;;18.00;99.90;;;;;;5017787;28;20255;-71
2022/09/07 06:44:18;;;;;;;6.35;4.50;;;18.00;99.90;;;;;;5050794;28;20171;-70
2022/09/07 06:46:43;;;;;;;5.80;4.32;;;18.00;99.90;;;;;;5049291;28;20275;-68
2022/09/07 06:49:09;;;;;;;6.55;4.05;;;18.10;99.90;;;;;;5034420;28;20191;-76
2022/09/07 06:51:35;;;;;;;7.63;4.55;;;18.10;99.90;;;;;;5036079;28;20250;-68
2022/09/07 06:54:00;;;;;;;7.88;4.18;;;18.10;99.90;;;;;;5043764;28;20265;-66
2022/09/07 06:56:27;;;;;;;6.10;4.20;;;18.20;99.90;;;;;;5044413;28;20405;-68
2022/09/07 06:58:53;;;;;;;7.30;4.47;;;18.20;99.90;;;;;;5047298;28;20235;-66
2022/09/07 07:01:20;;;;;;;8.93;4.15;;;18.20;99.90;;;;;;5053934;28;20274;-71
2022/09/07 07:03:46;;;;;;;6.72;5.05;;;18.30;99.90;;;;;;5051416;28;20354;-74
2022/09/07 07:06:12;;;;;;;6.78;4.78;;;18.30;99.90;;;;;;5060474;28;20183;-75
2022/09/07 07:08:39;;;;;;;10.50;4.57;;;18.30;99.90;;;;;;5052264;28;20683;-77
2022/09/07 07:11:07;;;;;;;6.25;4.30;;;18.30;99.90;;;;;;5058115;28;20208;-72
2022/09/07 07:13:34;;;;;;;5.78;4.60;;;18.30;99.90;;;;;;5056412;28;20179;-71
2022/09/07 07:16:05;;;;;;;12.07;5.22;;;18.30;99.90;;;;;;5049845;28;20184;-68
2022/09/07 07:18:32;;;;;;;6.45;4.47;;;18.40;99.90;;;;;;5054277;28;20280;-68
2022/09/07 07:21:00;;;;;;;7.78;4.70;;;18.40;99.90;;;;;;5050063;28;20674;-73
2022/09/07 07:23:26;;;;;;;9.88;5.05;;;18.40;99.90;;;;;;5038418;28;20657;-74
2022/09/07 07:25:52;;;;;;;7.38;5.45;;;18.40;99.90;;;;;;5051308;28;20263;-74
2022/09/07 07:28:17;;;;;;;8.18;5.05;;;18.40;99.90;;;;;;5054065;28;20325;-74
2022/09/07 07:30:43;;;;;;;10.77;5.15;;;18.40;99.90;;;;;;5055241;28;20704;-73
2022/09/07 07:36:26;;;;;;;5.50;4.57;;;18.50;99.90;;;;;;5041736;28;20228;-73
2022/09/07 07:38:54;;;;;;;6.65;5.10;;;18.50;99.90;;;;;;5053830;28;20246;-73
2022/09/07 07:41:22;;;;;;;7.38;5.28;;;18.50;99.90;;;;;;5054667;28;20179;-73
2022/09/07 07:43:55;;;;;;;10.55;5.07;;;18.50;99.90;;;;;;5053170;28;20248;-74
2022/09/07 07:46:23;;;;;;;7.80;5.47;;;18.50;99.90;;;;;;5053653;28;20202;-69
2022/09/07 07:48:49;;;;;;;8.35;5.40;;;18.50;99.90;;;;;;5052772;28;20183;-70
2022/09/07 07:51:15;;;;;;;10.25;5.90;;;18.60;99.90;;;;;;5036748;28;20198;-75
2022/09/07 07:53:41;;;;;;;11.70;6.93;;;18.60;99.90;;;;;;5055331;28;20233;-75
2022/09/07 07:56:09;;;;;;;13.75;7.13;;;18.60;99.90;;;;;;5054670;28;20276;-73
2022/09/07 07:58:36;;;;;;;12.52;7.18;;;18.60;99.90;;;;;;5053970;28;20206;-73
2022/09/07 08:01:04;;;;;;;12.45;7.68;;;18.60;99.90;;;;;;5043644;28;20179;-72
2022/09/07 08:03:32;;;;;;;13.43;8.50;;;18.60;99.90;;;;;;5041156;28;20180;-71
2022/09/07 08:06:21;;;;;;;12.25;8.25;;;18.70;99.90;;;;;;5052793;28;20192;-71
2022/09/07 08:08:47;;;;;;;12.75;9.20;;;18.70;99.90;;;;;;5055047;28;20175;-74
2022/09/07 08:11:18;;;;;;;11.50;8.90;;;18.70;99.90;;;;;;5048067;28;20188;-72
2022/09/07 08:13:46;;;;;;;9.88;8.45;;;18.80;99.90;;;;;;5052792;28;20194;-75
2022/09/07 08:16:13;;;;;;;15.10;9.90;;;18.80;99.90;;;;;;5054486;28;20171;-75
2022/09/07 08:18:39;;;;;;;12.68;9.68;;;18.80;99.90;;;;;;5052037;28;20289;-73
2022/09/07 08:21:13;;;;;;;13.82;10.10;;;18.80;99.90;;;;;;5050440;28;20266;-72
2022/09/07 08:23:40;;;;;;;14.95;10.30;;;18.90;99.90;;;;;;5042276;28;20186;-73
2022/09/07 08:26:06;;;;;;;16.90;11.32;;;19.00;99.90;;;;;;5053222;28;20191;-75
2022/09/07 08:28:36;;;;;;;18.45;10.75;;;19.10;99.90;;;;;;5054958;28;20183;-75
2022/09/07 08:31:07;;;;;;;15.60;11.80;;;19.20;99.90;;;;;;5051012;28;20167;-70
2022/09/07 08:33:37;;;;;;;14.77;11.98;;;19.20;99.90;;;;;;5043434;28;20167;-75
2022/09/07 08:36:09;;;;;;;17.92;12.80;;;19.40;99.90;;;;;;5053682;28;20168;-74
2022/09/07 08:38:36;;;;;;;17.42;12.50;;;19.40;99.90;;;;;;5053767;28;20199;-74
2022/09/07 08:41:25;;;;;;;14.30;12.80;;;19.50;99.90;;;;;;5053453;28;20187;-74
2022/09/07 08:44:00;;;;;;;15.10;11.30;;;19.50;99.90;;;;;;5010754;28;20265;-74
2022/09/07 08:46:41;;;;;;;14.90;12.45;;;19.50;99.90;;;;;;5053784;28;20171;-70
2022/09/07 08:49:38;;;;;;;18.33;12.38;;;19.60;99.90;;;;;;5054744;28;20202;-75
2022/09/07 08:52:13;;;;;;;13.52;11.07;;;19.60;99.90;;;;;;5051292;28;20178;-76
2022/09/07 08:54:41;;;;;;;13.27;11.43;;;19.70;99.90;;;;;;5060001;28;20633;-75
2022/09/07 08:57:08;;;;;;;15.95;12.23;;;19.80;99.90;;;;;;5068368;28;20209;-75
2022/09/07 08:59:52;;;;;;;14.50;11.50;;;19.80;99.90;;;;;;5052998;28;20219;-75
2022/09/07 09:02:18;;;;;;;13.93;11.02;;;19.90;99.90;;;;;;5049712;28;20256;-75
2022/09/07 09:04:44;;;;;;;11.15;9.43;;;20.00;99.90;;;;;;5029778;28;20486;-75
2022/09/07 09:07:13;;;;;;;10.95;9.25;;;20.10;99.90;;;;;;5044127;28;20663;-76
2022/09/07 09:10:17;;;;;;;12.13;9.20;;;20.20;99.90;;;;;;5054131;28;20174;-76
2022/09/07 09:13:00;;;;;;;12.05;9.45;;;20.20;99.90;;;;;;5043391;28;20183;-76
2022/09/07 09:15:51;;;;;;;12.60;8.52;;;20.30;99.90;;;;;;5045336;28;21062;-74
2022/09/07 09:18:47;;;;;;;9.70;8.13;;;20.30;99.90;;;;;;5045817;28;20261;-73
2022/09/07 09:21:16;;;;;;;12.05;8.07;;;20.40;99.90;;;;;;5052930;28;20213;-72
2022/09/07 09:23:45;;;;;;;9.75;7.63;;;20.50;99.90;;;;;;5050477;28;20537;-72
2022/09/07 09:26:25;;;;;;;9.70;8.02;;;20.50;99.90;;;;;;5032660;28;20259;-72
2022/09/07 09:28:51;;;;;;;12.82;8.23;;;20.60;99.90;;;;;;5050411;28;20194;-72
2022/09/07 09:31:35;;;;;;;8.57;7.65;;;20.60;99.90;;;;;;5043139;28;20262;-68
2022/09/07 09:34:04;;;;;;;8.32;6.32;;;20.60;99.90;;;;;;5064305;28;20262;-73
2022/09/07 09:36:33;;;;;;;8.68;6.40;;;20.60;99.90;;;;;;5052257;28;20261;-71
2022/09/07 09:39:00;;;;;;;12.40;6.72;;;20.80;99.90;;;;;;5046735;28;20203;-71
2022/09/07 09:41:36;;;;;;;8.18;5.90;;;20.80;99.90;;;;;;5048072;28;20187;-71
2022/09/07 09:44:02;;;;;;;10.27;6.80;;;20.80;99.90;;;;;;5048018;28;20178;-72
2022/09/07 09:46:36;;;;;;;7.95;5.97;;;20.90;99.90;;;;;;5040610;28;20197;-70
2022/09/07 09:49:27;;;;;;;7.68;5.55;;;20.90;99.90;;;;;;5061957;28;20215;-70
2022/09/07 09:51:55;;;;;;;13.73;6.22;;;20.90;99.90;;;;;;5052037;28;20159;-70
2022/09/07 09:54:38;;;;;;;7.50;6.47;;;20.90;99.90;;;;;;5053596;28;20175;-70
2022/09/07 09:57:04;;;;;;;12.10;6.30;;;20.90;99.90;;;;;;5050344;28;20209;-69
2022/09/07 09:59:32;;;;;;;8.48;4.90;;;21.00;99.90;;;;;;5052237;28;20267;-70
2022/09/07 10:02:07;;;;;;;7.45;4.78;;;21.10;99.90;;;;;;5052688;28;20179;-69
2022/09/07 10:04:34;;;;;;;10.80;4.22;;;21.20;99.90;;;;;;5053185;28;20527;-69
2022/09/07 10:07:08;;;;;;;7.18;4.45;;;21.30;99.90;;;;;;5049212;28;20179;-70
2022/09/07 10:09:37;;;;;;;10.40;4.20;;;21.40;99.90;;;;;;5039350;28;20228;-69
2022/09/07 10:12:06;;;;;;;7.10;3.65;;;21.50;99.90;;;;;;5049162;28;20177;-70
2022/09/07 10:14:40;;;;;;;9.80;3.78;;;21.60;99.90;;;;;;5051833;28;20187;-70
2022/09/07 10:17:34;;;;;;;7.85;3.38;;;21.70;99.90;;;;;;5052096;28;20909;-69
2022/09/07 10:20:20;;;;;;;9.57;3.20;;;21.90;99.90;;;;;;5044064;28;20195;-70
2022/09/07 10:22:52;;;;;;;9.80;3.00;;;22.10;99.90;;;;;;5044975;28;20179;-70
2022/09/07 10:25:38;;;;;;;7.78;3.15;;;22.20;99.90;;;;;;5051962;28;20190;-70
2022/09/07 10:28:08;;;;;;;7.38;2.72;;;22.30;99.90;;;;;;5051455;28;20179;-70
2022/09/07 10:30:50;;;;;;;6.05;2.10;;;22.30;99.90;;;;;;5052894;28;20533;-70
2022/09/07 10:33:25;;;;;;;9.73;2.88;;;22.30;99.90;;;;;;5042364;28;20236;-69
2022/09/07 10:36:14;;;;;;;5.50;2.10;;;22.30;99.90;;;;;;5041974;28;20193;-70
2022/09/07 10:38:51;;;;;;;5.72;1.85;;;22.40;99.90;;;;;;5060109;28;20202;-69
2022/09/07 10:41:20;;;;;;;8.18;2.53;;;22.50;99.90;;;;;;5052880;28;20163;-70
2022/09/07 10:43:49;;;;;;;8.07;2.00;;;22.60;99.90;;;;;;5052171;28;20187;-69
2022/09/07 10:46:17;;;;;;;8.32;2.10;;;22.70;99.90;;;;;;5051565;28;20224;-71
2022/09/07 10:49:12;;;;;;;9.98;2.25;;;22.80;99.90;;;;;;5032295;28;20183;-69
2022/09/07 10:52:03;;;;;;;9.63;2.17;;;22.90;99.90;;;;;;5048596;28;20278;-69
2022/09/07 10:54:47;;;;;;;7.88;2.10;;;23.00;99.90;;;;;;5044722;28;20266;-69
2022/09/07 10:57:28;;;;;;;8.25;2.25;;;23.10;99.90;;;;;;5038400;28;20171;-69
2022/09/07 11:00:05;;;;;;;9.23;2.20;;;23.30;99.90;;;;;;5052828;28;20215;-68
2022/09/07 11:02:50;;;;;;;10.73;2.50;;;23.40;99.90;;;;;;5046603;28;20242;-69
2022/09/07 11:05:51;;;;;;;7.88;2.40;;;23.50;99.90;;;;;;5048798;28;20167;-68
2022/09/07 11:08:33;;;;;;;7.88;2.13;;;23.60;99.90;;;;;;5056041;28;20182;-69
2022/09/07 11:11:20;;;;;;;7.70;1.90;;;23.60;99.80;;;;;;5063484;28;20167;-69
2022/09/07 11:13:49;;;;;;;9.82;2.15;;;23.60;99.20;;;;;;5050226;28;20483;-70
2022/09/07 11:16:23;;;;;;;7.68;2.33;;;23.60;98.30;;;;;;5038319;28;20176;-67
2022/09/07 11:18:55;;;;;;;8.75;2.22;;;23.50;97.70;;;;;;5044401;28;20238;-67
2022/09/07 11:21:27;;;;;;;5.10;2.10;;;23.50;97.50;;;;;;5052546;28;20683;-66
2022/09/07 11:24:08;;;;;;;9.57;2.33;;;23.60;96.70;;;;;;5047180;28;20171;-67
2022/09/07 11:27:12;;;;;;;11.77;2.03;;;23.60;96.50;;;;;;5052806;28;20175;-66
2022/09/07 11:29:47;;;;;;;9.32;2.25;;;23.70;95.40;;;;;;5021900;28;20199;-66
2022/09/07 11:32:19;;;;;;;8.02;2.05;;;23.70;95.80;;;;;;5051832;28;20213;-66
2022/09/07 11:35:00;;;;;;;7.65;2.28;;;23.80;95.10;;;;;;5047045;28;20183;-67
2022/09/07 11:37:45;;;;;;;10.70;2.00;;;23.80;94.50;;;;;;5052677;28;20171;-66
2022/09/07 11:40:21;;;;;;;11.27;2.20;;;23.90;94.00;;;;;;5054182;28;20179;-69
2022/09/07 11:42:58;;;;;;;10.85;2.30;;;24.10;93.80;;;;;;5057563;28;20230;-67
2022/09/07 11:45:42;;;;;;;6.05;1.77;;;24.10;93.10;;;;;;5071311;28;20186;-67
2022/09/07 11:48:30;;;;;;;7.65;1.90;;;24.10;92.50;;;;;;5054833;28;20183;-67
2022/09/07 11:51:02;;;;;;;7.40;2.15;;;24.30;92.20;;;;;;5054781;28;20179;-67
2022/09/07 11:53:38;;;;;;;7.32;2.17;;;24.40;91.60;;;;;;5044687;28;20358;-68
2022/09/07 11:56:14;;;;;;;6.88;2.10;;;24.40;91.50;;;;;;5067122;28;20650;-67
2022/09/07 11:59:00;;;;;;;6.50;1.95;;;24.50;91.60;;;;;;5055216;28;20299;-67
2022/09/07 12:01:31;;;;;;;9.30;2.35;;;24.60;91.10;;;;;;5035709;28;20180;-67
2022/09/07 12:04:23;;;;;;;9.05;2.20;;;24.70;90.90;;;;;;5045417;28;20631;-68
2022/09/07 12:07:23;;;;;;;7.57;2.30;;;24.70;90.60;;;;;;5050852;28;20183;-65
2022/09/07 12:10:05;;;;;;;10.13;2.60;;;24.70;90.80;;;;;;5045723;28;20179;-64
2022/09/07 12:12:40;;;;;;;8.32;2.35;;;24.60;91.20;;;;;;5061471;28;20180;-65
2022/09/07 12:15:30;;;;;;;9.73;2.70;;;24.40;91.50;;;;;;5053313;28;20270;-64
2022/09/07 12:18:20;;;;;;;10.63;3.00;;;24.40;92.00;;;;;;5043151;28;20416;-65
2022/09/07 12:20:47;;;;;;;11.13;2.80;;;24.40;92.80;;;;;;5035234;28;20176;-64
2022/09/07 12:23:16;;;;;;;6.35;2.50;;;24.30;93.20;;;;;;5046106;28;20205;-66
2022/09/07 12:25:46;;;;;;;12.75;3.13;;;24.20;93.30;;;;;;5035009;28;20180;-63
2022/09/07 12:28:35;;;;;;;11.07;2.50;;;24.10;93.70;;;;;;5039738;28;20487;-67
2022/09/07 12:31:03;;;;;;;7.25;2.60;;;24.00;94.10;;;;;;5043999;28;20207;-64
2022/09/07 12:33:37;;;;;;;9.40;2.88;;;24.00;94.30;;;;;;5053277;28;20183;-66
2022/09/07 12:36:24;;;;;;;5.93;2.20;;;23.90;94.50;;;;;;5053910;28;20171;-65
2022/09/07 12:39:23;;;;;;;8.15;2.90;;;24.00;94.40;;;;;;5044418;28;20574;-68
2022/09/07 12:42:14;;;;;;;11.00;2.63;;;23.90;94.20;;;;;;5048089;28;20179;-66
2022/09/07 12:44:39;;;;;;;13.95;2.80;;;23.90;94.50;;;;;;5047768;28;20202;-65
2022/09/07 12:47:11;;;;;;;7.70;2.42;;;24.00;94.70;;;;;;5054157;28;20183;-65
2022/09/07 12:49:57;;;;;;;10.50;2.85;;;24.10;94.80;;;;;;5043326;28;20187;-68
2022/09/07 12:52:41;;;;;;;6.75;2.60;;;24.10;94.80;;;;;;5052027;28;20657;-65
2022/09/07 12:55:11;;;;;;;9.55;2.80;;;24.30;94.50;;;;;;5054628;28;20604;-65
2022/09/07 12:57:43;;;;;;;10.63;2.33;;;24.50;94.50;;;;;;5054667;28;20194;-65
2022/09/07 13:00:24;;;;;;;10.40;2.80;;;24.70;93.90;;;;;;5043407;28;20227;-69
2022/09/07 13:03:18;;;;;;;10.73;2.63;;;24.80;93.50;;;;;;5060785;28;20209;-63
2022/09/07 13:06:02;;;;;;;12.25;2.30;;;24.70;93.70;;;;;;5034762;28;20178;-63
2022/09/07 13:08:33;;;;;;;10.25;2.40;;;24.70;93.90;;;;;;5048973;28;20189;-63
2022/09/07 13:11:38;;;;;;;13.40;2.72;;;24.70;93.50;;;;;;5057278;28;20634;-66
2022/09/07 13:14:05;;;;;;;10.98;2.70;;;24.80;92.70;;;;;;4974781;28;20272;-65
2022/09/07 13:16:37;;;;;;;10.68;2.70;;;24.80;93.00;;;;;;5038038;28;20193;-64